sensor_id;sensor_type;location;lat;lon;timestamp;P1;durP1;ratioP1;P2;durP2;ratioP2
83562;SDS011;73535;52.500;13.482;2024-02-26T00:01:45;16.25;;;10.80;;
83562;SDS011;73535;52.500;13.482;2024-02-26T00:04:11;15.77;;;11.48;;
83562;SDS011;73535;52.500;13.482;2024-02-26T00:06:38;17.30;;;11.60;;
83562;SDS011;73535;52.500;13.482;2024-02-26T00:09:06;15.68;;;11.23;;
83562;SDS011;73535;52.500;13.482;2024-02-26T00:11:31;16.40;;;12.40;;
83562;SDS011;73535;52.500;13.482;2024-02-26T00:13:56;15.73;;;11.45;;
83562;SDS011;73535;52.500;13.482;2024-02-26T00:16:22;15.65;;;11.35;;
83562;SDS011;73535;52.500;13.482;2024-02-26T00:18:48;14.98;;;10.82;;
83562;SDS011;73535;52.500;13.482;2024-02-26T00:21:13;13.82;;;10.48;;
83562;SDS011;73535;52.500;13.482;2024-02-26T00:23:38;16.38;;;10.88;;
83562;SDS011;73535;52.500;13.482;2024-02-26T00:26:03;15.20;;;10.70;;
83562;SDS011;73535;52.500;13.482;2024-02-26T00:28:29;13.45;;;10.90;;
83562;SDS011;73535;52.500;13.482;2024-02-26T00:30:54;15.68;;;10.90;;
83562;SDS011;73535;52.500;13.482;2024-02-26T00:33:20;14.00;;;10.95;;
83562;SDS011;73535;52.500;13.482;2024-02-26T00:35:46;13.57;;;10.70;;
83562;SDS011;73535;52.500;13.482;2024-02-26T00:38:11;15.15;;;10.32;;
83562;SDS011;73535;52.500;13.482;2024-02-26T00:40:36;12.02;;;10.07;;
83562;SDS011;73535;52.500;13.482;2024-02-26T00:43:02;13.90;;;11.00;;
83562;SDS011;73535;52.500;13.482;2024-02-26T00:45:27;12.25;;;9.73;;
83562;SDS011;73535;52.500;13.482;2024-02-26T00:47:52;11.60;;;9.88;;
83562;SDS011;73535;52.500;13.482;2024-02-26T00:50:17;10.15;;;9.05;;
83562;SDS011;73535;52.500;13.482;2024-02-26T00:52:42;11.07;;;9.00;;
83562;SDS011;73535;52.500;13.482;2024-02-26T00:55:08;12.38;;;8.80;;
83562;SDS011;73535;52.500;13.482;2024-02-26T00:57:33;10.88;;;8.65;;
83562;SDS011;73535;52.500;13.482;2024-02-26T00:59:58;11.68;;;9.18;;
83562;SDS011;73535;52.500;13.482;2024-02-26T01:02:25;11.52;;;8.45;;
83562;SDS011;73535;52.500;13.482;2024-02-26T01:04:50;9.88;;;7.68;;
83562;SDS011;73535;52.500;13.482;2024-02-26T01:07:16;9.10;;;7.55;;
83562;SDS011;73535;52.500;13.482;2024-02-26T01:09:41;9.55;;;7.70;;
83562;SDS011;73535;52.500;13.482;2024-02-26T01:12:07;10.10;;;7.80;;
83562;SDS011;73535;52.500;13.482;2024-02-26T01:14:32;10.48;;;7.90;;
83562;SDS011;73535;52.500;13.482;2024-02-26T01:16:57;9.65;;;7.97;;
83562;SDS011;73535;52.500;13.482;2024-02-26T01:19:22;12.07;;;8.05;;
83562;SDS011;73535;52.500;13.482;2024-02-26T01:21:48;10.35;;;7.88;;
83562;SDS011;73535;52.500;13.482;2024-02-26T01:24:13;9.85;;;7.47;;
83562;SDS011;73535;52.500;13.482;2024-02-26T01:26:38;9.38;;;7.78;;
83562;SDS011;73535;52.500;13.482;2024-02-26T01:29:04;10.25;;;7.47;;
83562;SDS011;73535;52.500;13.482;2024-02-26T01:31:29;9.90;;;7.32;;
83562;SDS011;73535;52.500;13.482;2024-02-26T01:33:54;11.75;;;8.02;;
83562;SDS011;73535;52.500;13.482;2024-02-26T01:36:19;12.57;;;7.45;;
83562;SDS011;73535;52.500;13.482;2024-02-26T01:38:46;11.40;;;8.07;;
83562;SDS011;73535;52.500;13.482;2024-02-26T01:41:11;10.52;;;7.72;;
83562;SDS011;73535;52.500;13.482;2024-02-26T01:43:38;13.05;;;8.23;;
83562;SDS011;73535;52.500;13.482;2024-02-26T01:46:04;11.60;;;7.78;;
83562;SDS011;73535;52.500;13.482;2024-02-26T01:48:29;10.98;;;8.18;;
83562;SDS011;73535;52.500;13.482;2024-02-26T01:50:55;10.63;;;7.68;;
83562;SDS011;73535;52.500;13.482;2024-02-26T01:53:20;11.77;;;8.10;;
83562;SDS011;73535;52.500;13.482;2024-02-26T01:55:46;9.90;;;7.80;;
83562;SDS011;73535;52.500;13.482;2024-02-26T01:58:11;10.27;;;8.13;;
83562;SDS011;73535;52.500;13.482;2024-02-26T02:00:37;10.48;;;8.35;;
83562;SDS011;73535;52.500;13.482;2024-02-26T02:03:03;9.90;;;8.10;;
83562;SDS011;73535;52.500;13.482;2024-02-26T02:05:30;9.95;;;8.18;;
83562;SDS011;73535;52.500;13.482;2024-02-26T02:07:55;9.70;;;7.57;;
83562;SDS011;73535;52.500;13.482;2024-02-26T02:10:21;10.57;;;7.47;;
83562;SDS011;73535;52.500;13.482;2024-02-26T02:12:48;10.88;;;7.93;;
83562;SDS011;73535;52.500;13.482;2024-02-26T02:15:14;11.63;;;8.38;;
83562;SDS011;73535;52.500;13.482;2024-02-26T02:17:39;8.63;;;7.35;;
83562;SDS011;73535;52.500;13.482;2024-02-26T02:20:07;10.88;;;8.23;;
83562;SDS011;73535;52.500;13.482;2024-02-26T02:22:33;9.23;;;7.22;;
83562;SDS011;73535;52.500;13.482;2024-02-26T02:24:59;9.20;;;7.53;;
83562;SDS011;73535;52.500;13.482;2024-02-26T02:27:24;9.65;;;7.00;;
83562;SDS011;73535;52.500;13.482;2024-02-26T02:29:51;8.63;;;6.82;;
83562;SDS011;73535;52.500;13.482;2024-02-26T02:32:16;9.13;;;6.28;;
83562;SDS011;73535;52.500;13.482;2024-02-26T02:34:42;8.90;;;7.18;;
83562;SDS011;73535;52.500;13.482;2024-02-26T02:37:07;7.20;;;5.95;;
83562;SDS011;73535;52.500;13.482;2024-02-26T02:39:32;10.07;;;6.40;;
83562;SDS011;73535;52.500;13.482;2024-02-26T02:41:58;9.10;;;6.55;;
83562;SDS011;73535;52.500;13.482;2024-02-26T02:44:23;7.70;;;5.90;;
83562;SDS011;73535;52.500;13.482;2024-02-26T02:46:48;9.30;;;6.70;;
83562;SDS011;73535;52.500;13.482;2024-02-26T02:49:15;7.75;;;6.13;;
83562;SDS011;73535;52.500;13.482;2024-02-26T02:51:41;9.93;;;6.10;;
83562;SDS011;73535;52.500;13.482;2024-02-26T02:54:06;7.65;;;5.93;;
83562;SDS011;73535;52.500;13.482;2024-02-26T02:56:32;7.95;;;6.07;;
83562;SDS011;73535;52.500;13.482;2024-02-26T02:58:57;9.25;;;6.07;;
83562;SDS011;73535;52.500;13.482;2024-02-26T03:01:22;9.38;;;6.40;;
83562;SDS011;73535;52.500;13.482;2024-02-26T03:03:47;7.03;;;6.32;;
83562;SDS011;73535;52.500;13.482;2024-02-26T03:06:13;8.10;;;5.97;;
83562;SDS011;73535;52.500;13.482;2024-02-26T03:08:38;9.18;;;5.60;;
83562;SDS011;73535;52.500;13.482;2024-02-26T03:11:04;7.75;;;6.15;;
83562;SDS011;73535;52.500;13.482;2024-02-26T03:13:29;6.60;;;5.35;;
83562;SDS011;73535;52.500;13.482;2024-02-26T03:15:55;9.10;;;6.10;;
83562;SDS011;73535;52.500;13.482;2024-02-26T03:18:20;7.13;;;5.75;;
83562;SDS011;73535;52.500;13.482;2024-02-26T03:20:45;9.70;;;6.95;;
83562;SDS011;73535;52.500;13.482;2024-02-26T03:23:11;7.80;;;6.05;;
83562;SDS011;73535;52.500;13.482;2024-02-26T03:25:39;7.57;;;5.88;;
83562;SDS011;73535;52.500;13.482;2024-02-26T03:28:06;10.40;;;6.90;;
83562;SDS011;73535;52.500;13.482;2024-02-26T03:30:31;9.38;;;6.22;;
83562;SDS011;73535;52.500;13.482;2024-02-26T03:32:57;8.98;;;6.20;;
83562;SDS011;73535;52.500;13.482;2024-02-26T03:35:22;9.20;;;7.28;;
83562;SDS011;73535;52.500;13.482;2024-02-26T03:37:47;9.07;;;6.55;;
83562;SDS011;73535;52.500;13.482;2024-02-26T03:40:12;9.35;;;6.68;;
83562;SDS011;73535;52.500;13.482;2024-02-26T03:42:39;9.88;;;6.82;;
83562;SDS011;73535;52.500;13.482;2024-02-26T03:45:04;9.75;;;7.13;;
83562;SDS011;73535;52.500;13.482;2024-02-26T03:47:30;10.68;;;6.93;;
83562;SDS011;73535;52.500;13.482;2024-02-26T03:49:55;11.88;;;7.30;;
83562;SDS011;73535;52.500;13.482;2024-02-26T03:52:21;8.18;;;7.05;;
83562;SDS011;73535;52.500;13.482;2024-02-26T03:54:46;8.85;;;7.05;;
83562;SDS011;73535;52.500;13.482;2024-02-26T03:57:11;8.70;;;6.57;;
83562;SDS011;73535;52.500;13.482;2024-02-26T03:59:37;11.18;;;6.93;;
83562;SDS011;73535;52.500;13.482;2024-02-26T04:02:02;10.95;;;7.93;;
83562;SDS011;73535;52.500;13.482;2024-02-26T04:04:27;10.60;;;8.50;;
83562;SDS011;73535;52.500;13.482;2024-02-26T04:06:52;10.82;;;7.95;;
83562;SDS011;73535;52.500;13.482;2024-02-26T04:09:18;9.90;;;7.22;;
83562;SDS011;73535;52.500;13.482;2024-02-26T04:11:43;10.15;;;7.05;;
83562;SDS011;73535;52.500;13.482;2024-02-26T04:14:08;12.27;;;6.85;;
83562;SDS011;73535;52.500;13.482;2024-02-26T04:16:34;10.60;;;7.32;;
83562;SDS011;73535;52.500;13.482;2024-02-26T04:19:00;9.93;;;7.93;;
83562;SDS011;73535;52.500;13.482;2024-02-26T04:21:25;10.20;;;7.22;;
83562;SDS011;73535;52.500;13.482;2024-02-26T04:23:51;11.32;;;8.07;;
83562;SDS011;73535;52.500;13.482;2024-02-26T04:26:19;10.75;;;7.25;;
83562;SDS011;73535;52.500;13.482;2024-02-26T04:28:45;10.88;;;7.45;;
83562;SDS011;73535;52.500;13.482;2024-02-26T04:31:11;11.25;;;7.88;;
83562;SDS011;73535;52.500;13.482;2024-02-26T04:33:36;11.90;;;9.02;;
83562;SDS011;73535;52.500;13.482;2024-02-26T04:36:01;12.85;;;8.48;;
83562;SDS011;73535;52.500;13.482;2024-02-26T04:38:27;11.85;;;8.10;;
83562;SDS011;73535;52.500;13.482;2024-02-26T04:40:53;21.20;;;15.60;;
83562;SDS011;73535;52.500;13.482;2024-02-26T04:43:18;19.02;;;12.70;;
83562;SDS011;73535;52.500;13.482;2024-02-26T04:45:44;15.20;;;11.40;;
83562;SDS011;73535;52.500;13.482;2024-02-26T04:48:09;12.65;;;8.85;;
83562;SDS011;73535;52.500;13.482;2024-02-26T04:50:34;14.23;;;9.73;;
83562;SDS011;73535;52.500;13.482;2024-02-26T04:53:00;12.75;;;8.95;;
83562;SDS011;73535;52.500;13.482;2024-02-26T04:55:25;11.80;;;8.25;;
83562;SDS011;73535;52.500;13.482;2024-02-26T04:57:50;14.95;;;9.65;;
83562;SDS011;73535;52.500;13.482;2024-02-26T05:00:15;13.27;;;8.88;;
83562;SDS011;73535;52.500;13.482;2024-02-26T05:02:41;13.52;;;9.38;;
83562;SDS011;73535;52.500;13.482;2024-02-26T05:05:06;15.45;;;9.73;;
83562;SDS011;73535;52.500;13.482;2024-02-26T05:07:33;16.58;;;9.50;;
83562;SDS011;73535;52.500;13.482;2024-02-26T05:09:58;12.63;;;8.13;;
83562;SDS011;73535;52.500;13.482;2024-02-26T05:12:24;14.73;;;9.48;;
83562;SDS011;73535;52.500;13.482;2024-02-26T05:14:49;14.07;;;9.38;;
83562;SDS011;73535;52.500;13.482;2024-02-26T05:17:14;14.25;;;9.27;;
83562;SDS011;73535;52.500;13.482;2024-02-26T05:19:40;17.35;;;9.18;;
83562;SDS011;73535;52.500;13.482;2024-02-26T05:22:05;15.98;;;9.43;;
83562;SDS011;73535;52.500;13.482;2024-02-26T05:24:30;16.75;;;10.85;;
83562;SDS011;73535;52.500;13.482;2024-02-26T05:26:55;14.18;;;9.05;;
83562;SDS011;73535;52.500;13.482;2024-02-26T05:29:20;16.60;;;9.98;;
83562;SDS011;73535;52.500;13.482;2024-02-26T05:31:46;16.63;;;9.93;;
83562;SDS011;73535;52.500;13.482;2024-02-26T05:34:11;14.52;;;9.60;;
83562;SDS011;73535;52.500;13.482;2024-02-26T05:36:36;15.77;;;9.73;;
83562;SDS011;73535;52.500;13.482;2024-02-26T05:39:01;15.40;;;9.43;;
83562;SDS011;73535;52.500;13.482;2024-02-26T05:41:28;15.43;;;9.90;;
83562;SDS011;73535;52.500;13.482;2024-02-26T05:43:54;15.48;;;9.90;;
83562;SDS011;73535;52.500;13.482;2024-02-26T05:46:19;15.75;;;10.65;;
83562;SDS011;73535;52.500;13.482;2024-02-26T05:48:48;16.17;;;10.25;;
83562;SDS011;73535;52.500;13.482;2024-02-26T05:51:15;14.95;;;10.23;;
83562;SDS011;73535;52.500;13.482;2024-02-26T05:53:40;17.92;;;11.27;;
83562;SDS011;73535;52.500;13.482;2024-02-26T05:56:06;17.27;;;12.00;;
83562;SDS011;73535;52.500;13.482;2024-02-26T05:58:31;15.10;;;11.20;;
83562;SDS011;73535;52.500;13.482;2024-02-26T06:00:56;17.50;;;11.20;;
83562;SDS011;73535;52.500;13.482;2024-02-26T06:03:22;18.92;;;11.85;;
83562;SDS011;73535;52.500;13.482;2024-02-26T06:05:47;17.45;;;11.77;;
83562;SDS011;73535;52.500;13.482;2024-02-26T06:08:12;15.13;;;11.32;;
83562;SDS011;73535;52.500;13.482;2024-02-26T06:10:38;20.05;;;12.23;;
83562;SDS011;73535;52.500;13.482;2024-02-26T06:13:04;20.65;;;11.90;;
83562;SDS011;73535;52.500;13.482;2024-02-26T06:15:29;16.60;;;11.60;;
83562;SDS011;73535;52.500;13.482;2024-02-26T06:17:54;16.95;;;11.45;;
83562;SDS011;73535;52.500;13.482;2024-02-26T06:20:20;20.15;;;11.68;;
83562;SDS011;73535;52.500;13.482;2024-02-26T06:22:45;18.17;;;11.75;;
83562;SDS011;73535;52.500;13.482;2024-02-26T06:25:10;17.77;;;11.85;;
83562;SDS011;73535;52.500;13.482;2024-02-26T06:27:36;18.52;;;12.50;;
83562;SDS011;73535;52.500;13.482;2024-02-26T06:30:01;17.40;;;12.98;;
83562;SDS011;73535;52.500;13.482;2024-02-26T06:32:26;18.17;;;12.32;;
83562;SDS011;73535;52.500;13.482;2024-02-26T06:34:53;18.10;;;12.63;;
83562;SDS011;73535;52.500;13.482;2024-02-26T06:37:19;19.63;;;12.82;;
83562;SDS011;73535;52.500;13.482;2024-02-26T06:39:44;18.95;;;12.68;;
83562;SDS011;73535;52.500;13.482;2024-02-26T06:42:09;21.98;;;12.77;;
83562;SDS011;73535;52.500;13.482;2024-02-26T06:44:34;17.92;;;13.13;;
83562;SDS011;73535;52.500;13.482;2024-02-26T06:47:00;20.52;;;12.90;;
83562;SDS011;73535;52.500;13.482;2024-02-26T06:49:26;21.23;;;14.32;;
83562;SDS011;73535;52.500;13.482;2024-02-26T06:51:51;18.33;;;12.95;;
83562;SDS011;73535;52.500;13.482;2024-02-26T06:54:17;21.67;;;13.93;;
83562;SDS011;73535;52.500;13.482;2024-02-26T06:56:42;21.83;;;13.00;;
83562;SDS011;73535;52.500;13.482;2024-02-26T06:59:08;21.05;;;13.18;;
83562;SDS011;73535;52.500;13.482;2024-02-26T07:01:33;19.52;;;12.80;;
83562;SDS011;73535;52.500;13.482;2024-02-26T07:03:58;17.80;;;12.35;;
83562;SDS011;73535;52.500;13.482;2024-02-26T07:06:23;19.65;;;13.15;;
83562;SDS011;73535;52.500;13.482;2024-02-26T07:08:49;17.75;;;11.93;;
83562;SDS011;73535;52.500;13.482;2024-02-26T07:11:14;21.25;;;13.38;;
83562;SDS011;73535;52.500;13.482;2024-02-26T07:13:39;20.08;;;13.02;;
83562;SDS011;73535;52.500;13.482;2024-02-26T07:16:04;17.08;;;12.82;;
83562;SDS011;73535;52.500;13.482;2024-02-26T07:18:30;23.48;;;13.50;;
83562;SDS011;73535;52.500;13.482;2024-02-26T07:20:55;19.33;;;13.65;;
83562;SDS011;73535;52.500;13.482;2024-02-26T07:23:21;18.02;;;12.05;;
83562;SDS011;73535;52.500;13.482;2024-02-26T07:25:46;19.85;;;13.63;;
83562;SDS011;73535;52.500;13.482;2024-02-26T07:28:13;21.77;;;14.68;;
83562;SDS011;73535;52.500;13.482;2024-02-26T07:30:39;20.10;;;13.40;;
83562;SDS011;73535;52.500;13.482;2024-02-26T07:33:04;20.73;;;13.63;;
83562;SDS011;73535;52.500;13.482;2024-02-26T07:35:29;20.27;;;14.05;;
83562;SDS011;73535;52.500;13.482;2024-02-26T07:37:54;18.38;;;12.52;;
83562;SDS011;73535;52.500;13.482;2024-02-26T07:40:20;17.35;;;13.23;;
83562;SDS011;73535;52.500;13.482;2024-02-26T07:42:45;19.52;;;12.75;;
83562;SDS011;73535;52.500;13.482;2024-02-26T07:45:10;23.95;;;14.55;;
83562;SDS011;73535;52.500;13.482;2024-02-26T07:47:35;21.48;;;14.52;;
83562;SDS011;73535;52.500;13.482;2024-02-26T07:50:02;17.35;;;13.38;;
83562;SDS011;73535;52.500;13.482;2024-02-26T07:52:28;20.20;;;14.20;;
83562;SDS011;73535;52.500;13.482;2024-02-26T07:54:53;20.10;;;13.30;;
83562;SDS011;73535;52.500;13.482;2024-02-26T07:57:18;23.30;;;14.27;;
83562;SDS011;73535;52.500;13.482;2024-02-26T07:59:43;22.63;;;14.05;;
83562;SDS011;73535;52.500;13.482;2024-02-26T08:02:09;20.17;;;13.52;;
83562;SDS011;73535;52.500;13.482;2024-02-26T08:04:35;19.75;;;13.70;;
83562;SDS011;73535;52.500;13.482;2024-02-26T08:07:00;23.00;;;14.40;;
83562;SDS011;73535;52.500;13.482;2024-02-26T08:09:25;20.55;;;14.90;;
83562;SDS011;73535;52.500;13.482;2024-02-26T08:11:50;18.88;;;13.77;;
83562;SDS011;73535;52.500;13.482;2024-02-26T08:14:16;20.40;;;13.55;;
83562;SDS011;73535;52.500;13.482;2024-02-26T08:16:41;22.55;;;15.13;;
83562;SDS011;73535;52.500;13.482;2024-02-26T08:19:06;25.45;;;15.82;;
83562;SDS011;73535;52.500;13.482;2024-02-26T08:21:31;21.88;;;15.38;;
83562;SDS011;73535;52.500;13.482;2024-02-26T08:23:57;20.95;;;14.10;;
83562;SDS011;73535;52.500;13.482;2024-02-26T08:26:22;22.70;;;15.45;;
83562;SDS011;73535;52.500;13.482;2024-02-26T08:28:49;20.58;;;14.13;;
83562;SDS011;73535;52.500;13.482;2024-02-26T08:31:16;22.08;;;14.90;;
83562;SDS011;73535;52.500;13.482;2024-02-26T08:33:41;21.85;;;14.05;;
83562;SDS011;73535;52.500;13.482;2024-02-26T08:36:06;24.45;;;15.05;;
83562;SDS011;73535;52.500;13.482;2024-02-26T08:38:32;23.67;;;14.50;;
83562;SDS011;73535;52.500;13.482;2024-02-26T08:40:59;22.88;;;15.15;;
83562;SDS011;73535;52.500;13.482;2024-02-26T08:43:24;22.85;;;15.05;;
83562;SDS011;73535;52.500;13.482;2024-02-26T08:45:49;21.83;;;14.70;;
83562;SDS011;73535;52.500;13.482;2024-02-26T08:48:15;19.77;;;13.98;;
83562;SDS011;73535;52.500;13.482;2024-02-26T08:50:40;20.35;;;14.10;;
83562;SDS011;73535;52.500;13.482;2024-02-26T08:53:05;21.58;;;14.30;;
83562;SDS011;73535;52.500;13.482;2024-02-26T08:55:32;20.10;;;13.80;;
83562;SDS011;73535;52.500;13.482;2024-02-26T08:57:57;24.08;;;13.90;;
83562;SDS011;73535;52.500;13.482;2024-02-26T09:00:22;20.73;;;13.88;;
83562;SDS011;73535;52.500;13.482;2024-02-26T09:02:47;17.05;;;13.38;;
83562;SDS011;73535;52.500;13.482;2024-02-26T09:05:14;18.17;;;12.93;;
83562;SDS011;73535;52.500;13.482;2024-02-26T09:07:39;18.88;;;13.07;;
83562;SDS011;73535;52.500;13.482;2024-02-26T09:10:05;19.05;;;12.98;;
83562;SDS011;73535;52.500;13.482;2024-02-26T09:12:30;21.88;;;14.23;;
83562;SDS011;73535;52.500;13.482;2024-02-26T09:14:56;19.23;;;13.95;;
83562;SDS011;73535;52.500;13.482;2024-02-26T09:17:22;20.60;;;13.48;;
83562;SDS011;73535;52.500;13.482;2024-02-26T09:19:47;18.23;;;13.00;;
83562;SDS011;73535;52.500;13.482;2024-02-26T09:22:12;19.60;;;13.75;;
83562;SDS011;73535;52.500;13.482;2024-02-26T09:24:38;15.68;;;12.48;;
83562;SDS011;73535;52.500;13.482;2024-02-26T09:27:03;16.15;;;10.88;;
83562;SDS011;73535;52.500;13.482;2024-02-26T09:29:28;15.45;;;11.93;;
83562;SDS011;73535;52.500;13.482;2024-02-26T09:31:54;16.48;;;11.93;;
83562;SDS011;73535;52.500;13.482;2024-02-26T09:34:19;19.13;;;11.77;;
83562;SDS011;73535;52.500;13.482;2024-02-26T09:36:44;15.40;;;11.90;;
83562;SDS011;73535;52.500;13.482;2024-02-26T09:39:09;20.33;;;12.40;;
83562;SDS011;73535;52.500;13.482;2024-02-26T09:44:02;18.73;;;12.32;;
83562;SDS011;73535;52.500;13.482;2024-02-26T09:46:29;17.10;;;11.50;;
83562;SDS011;73535;52.500;13.482;2024-02-26T09:48:55;24.20;;;12.77;;
83562;SDS011;73535;52.500;13.482;2024-02-26T09:51:20;15.88;;;10.60;;
83562;SDS011;73535;52.500;13.482;2024-02-26T09:53:49;15.75;;;9.93;;
83562;SDS011;73535;52.500;13.482;2024-02-26T09:56:16;19.05;;;11.45;;
83562;SDS011;73535;52.500;13.482;2024-02-26T09:58:42;14.30;;;10.43;;
83562;SDS011;73535;52.500;13.482;2024-02-26T10:01:11;14.57;;;10.50;;
83562;SDS011;73535;52.500;13.482;2024-02-26T10:03:41;14.27;;;9.70;;
83562;SDS011;73535;52.500;13.482;2024-02-26T10:06:08;13.77;;;9.98;;
83562;SDS011;73535;52.500;13.482;2024-02-26T10:08:34;17.30;;;10.23;;
83562;SDS011;73535;52.500;13.482;2024-02-26T10:11:00;12.93;;;10.05;;
83562;SDS011;73535;52.500;13.482;2024-02-26T10:13:25;13.30;;;9.23;;
83562;SDS011;73535;52.500;13.482;2024-02-26T10:15:51;13.30;;;10.20;;
83562;SDS011;73535;52.500;13.482;2024-02-26T10:18:16;14.52;;;9.23;;
83562;SDS011;73535;52.500;13.482;2024-02-26T10:20:41;15.35;;;9.05;;
83562;SDS011;73535;52.500;13.482;2024-02-26T10:23:06;10.95;;;8.68;;
83562;SDS011;73535;52.500;13.482;2024-02-26T10:25:32;16.05;;;8.77;;
83562;SDS011;73535;52.500;13.482;2024-02-26T10:28:00;14.02;;;8.63;;
83562;SDS011;73535;52.500;13.482;2024-02-26T10:30:29;12.38;;;8.23;;
83562;SDS011;73535;52.500;13.482;2024-02-26T10:32:55;13.05;;;9.25;;
83562;SDS011;73535;52.500;13.482;2024-02-26T10:35:21;13.40;;;8.68;;
83562;SDS011;73535;52.500;13.482;2024-02-26T10:37:46;11.95;;;9.15;;
83562;SDS011;73535;52.500;13.482;2024-02-26T10:40:12;17.25;;;9.95;;
83562;SDS011;73535;52.500;13.482;2024-02-26T10:42:41;15.80;;;9.88;;
83562;SDS011;73535;52.500;13.482;2024-02-26T10:45:07;12.23;;;8.88;;
83562;SDS011;73535;52.500;13.482;2024-02-26T10:47:34;12.77;;;8.82;;
83562;SDS011;73535;52.500;13.482;2024-02-26T10:50:01;11.32;;;7.80;;
83562;SDS011;73535;52.500;13.482;2024-02-26T10:52:27;9.52;;;7.40;;
83562;SDS011;73535;52.500;13.482;2024-02-26T10:55:00;12.32;;;7.65;;
83562;SDS011;73535;52.500;13.482;2024-02-26T10:57:27;13.25;;;7.93;;
83562;SDS011;73535;52.500;13.482;2024-02-26T10:59:57;17.23;;;9.05;;
83562;SDS011;73535;52.500;13.482;2024-02-26T11:02:23;10.90;;;7.95;;
83562;SDS011;73535;52.500;13.482;2024-02-26T11:04:48;12.38;;;8.63;;
83562;SDS011;73535;52.500;13.482;2024-02-26T11:07:14;10.68;;;8.00;;
83562;SDS011;73535;52.500;13.482;2024-02-26T11:09:40;10.23;;;8.02;;
83562;SDS011;73535;52.500;13.482;2024-02-26T11:12:10;10.10;;;7.18;;
83562;SDS011;73535;52.500;13.482;2024-02-26T11:14:37;11.77;;;7.93;;
83562;SDS011;73535;52.500;13.482;2024-02-26T11:17:04;10.60;;;8.30;;
83562;SDS011;73535;52.500;13.482;2024-02-26T11:19:32;9.93;;;7.63;;
83562;SDS011;73535;52.500;13.482;2024-02-26T11:22:00;10.13;;;6.95;;
83562;SDS011;73535;52.500;13.482;2024-02-26T11:24:26;12.13;;;7.97;;
83562;SDS011;73535;52.500;13.482;2024-02-26T11:26:52;11.85;;;7.13;;
83562;SDS011;73535;52.500;13.482;2024-02-26T11:29:24;10.85;;;7.47;;
83562;SDS011;73535;52.500;13.482;2024-02-26T11:31:52;10.32;;;7.45;;
83562;SDS011;73535;52.500;13.482;2024-02-26T11:34:18;9.90;;;7.30;;
83562;SDS011;73535;52.500;13.482;2024-02-26T11:36:43;9.55;;;7.63;;
83562;SDS011;73535;52.500;13.482;2024-02-26T11:39:10;10.60;;;7.47;;
83562;SDS011;73535;52.500;13.482;2024-02-26T11:41:37;14.07;;;6.72;;
83562;SDS011;73535;52.500;13.482;2024-02-26T11:44:03;9.07;;;7.88;;
83562;SDS011;73535;52.500;13.482;2024-02-26T11:46:32;11.90;;;7.35;;
83562;SDS011;73535;52.500;13.482;2024-02-26T11:49:02;8.45;;;6.93;;
83562;SDS011;73535;52.500;13.482;2024-02-26T11:51:50;8.85;;;6.75;;
83562;SDS011;73535;52.500;13.482;2024-02-26T11:54:37;8.43;;;6.38;;
83562;SDS011;73535;52.500;13.482;2024-02-26T11:57:32;11.70;;;7.43;;
83562;SDS011;73535;52.500;13.482;2024-02-26T12:02:41;8.80;;;7.00;;
83562;SDS011;73535;52.500;13.482;2024-02-26T12:05:14;8.98;;;7.40;;
83562;SDS011;73535;52.500;13.482;2024-02-26T12:08:09;10.88;;;7.53;;
83562;SDS011;73535;52.500;13.482;2024-02-26T12:13:08;8.57;;;7.10;;
83562;SDS011;73535;52.500;13.482;2024-02-26T12:15:37;11.55;;;7.70;;
83562;SDS011;73535;52.500;13.482;2024-02-26T12:18:05;9.48;;;7.05;;
83562;SDS011;73535;52.500;13.482;2024-02-26T12:20:32;7.82;;;6.50;;
83562;SDS011;73535;52.500;13.482;2024-02-26T12:22:58;10.10;;;6.10;;
83562;SDS011;73535;52.500;13.482;2024-02-26T12:25:25;6.30;;;5.30;;
83562;SDS011;73535;52.500;13.482;2024-02-26T12:27:51;8.98;;;5.65;;
83562;SDS011;73535;52.500;13.482;2024-02-26T12:30:17;9.57;;;4.85;;
83562;SDS011;73535;52.500;13.482;2024-02-26T12:32:44;6.57;;;5.10;;
83562;SDS011;73535;52.500;13.482;2024-02-26T12:35:09;6.95;;;4.95;;
83562;SDS011;73535;52.500;13.482;2024-02-26T12:37:34;7.18;;;5.35;;
83562;SDS011;73535;52.500;13.482;2024-02-26T12:40:02;6.80;;;5.93;;
83562;SDS011;73535;52.500;13.482;2024-02-26T12:42:30;7.45;;;5.70;;
83562;SDS011;73535;52.500;13.482;2024-02-26T12:44:58;9.43;;;7.00;;
83562;SDS011;73535;52.500;13.482;2024-02-26T12:47:23;5.72;;;4.18;;
83562;SDS011;73535;52.500;13.482;2024-02-26T12:49:48;5.18;;;3.67;;
83562;SDS011;73535;52.500;13.482;2024-02-26T12:52:14;5.32;;;3.70;;
83562;SDS011;73535;52.500;13.482;2024-02-26T12:54:42;5.13;;;3.70;;
83562;SDS011;73535;52.500;13.482;2024-02-26T12:57:09;5.57;;;4.13;;
83562;SDS011;73535;52.500;13.482;2024-02-26T12:59:34;5.85;;;4.22;;
83562;SDS011;73535;52.500;13.482;2024-02-26T13:02:01;5.65;;;3.33;;
83562;SDS011;73535;52.500;13.482;2024-02-26T13:04:28;6.32;;;3.78;;
83562;SDS011;73535;52.500;13.482;2024-02-26T13:06:54;10.65;;;5.20;;
83562;SDS011;73535;52.500;13.482;2024-02-26T13:09:20;12.20;;;7.80;;
83562;SDS011;73535;52.500;13.482;2024-02-26T13:11:51;9.55;;;6.80;;
83562;SDS011;73535;52.500;13.482;2024-02-26T13:14:19;10.93;;;6.97;;
83562;SDS011;73535;52.500;13.482;2024-02-26T13:16:45;8.63;;;6.88;;
83562;SDS011;73535;52.500;13.482;2024-02-26T13:19:19;12.70;;;7.32;;
83562;SDS011;73535;52.500;13.482;2024-02-26T13:21:44;8.35;;;6.47;;
83562;SDS011;73535;52.500;13.482;2024-02-26T13:24:12;8.52;;;6.75;;
83562;SDS011;73535;52.500;13.482;2024-02-26T13:26:38;8.63;;;6.57;;
83562;SDS011;73535;52.500;13.482;2024-02-26T13:29:03;7.82;;;6.20;;
83562;SDS011;73535;52.500;13.482;2024-02-26T13:31:28;11.25;;;6.93;;
83562;SDS011;73535;52.500;13.482;2024-02-26T13:33:54;8.40;;;7.05;;
83562;SDS011;73535;52.500;13.482;2024-02-26T13:36:21;8.73;;;6.40;;
83562;SDS011;73535;52.500;13.482;2024-02-26T13:38:54;8.40;;;5.60;;
83562;SDS011;73535;52.500;13.482;2024-02-26T13:43:45;9.45;;;6.30;;
83562;SDS011;73535;52.500;13.482;2024-02-26T13:46:11;8.18;;;5.63;;
83562;SDS011;73535;52.500;13.482;2024-02-26T13:48:37;6.85;;;5.72;;
83562;SDS011;73535;52.500;13.482;2024-02-26T13:51:03;7.95;;;5.90;;
83562;SDS011;73535;52.500;13.482;2024-02-26T13:53:29;10.45;;;5.80;;
83562;SDS011;73535;52.500;13.482;2024-02-26T13:55:54;9.18;;;6.13;;
83562;SDS011;73535;52.500;13.482;2024-02-26T13:58:19;7.38;;;5.55;;
83562;SDS011;73535;52.500;13.482;2024-02-26T14:00:48;7.97;;;5.32;;
83562;SDS011;73535;52.500;13.482;2024-02-26T14:03:14;6.97;;;5.40;;
83562;SDS011;73535;52.500;13.482;2024-02-26T14:05:39;7.80;;;5.10;;
83562;SDS011;73535;52.500;13.482;2024-02-26T14:08:05;7.68;;;5.28;;
83562;SDS011;73535;52.500;13.482;2024-02-26T14:10:30;9.90;;;5.63;;
83562;SDS011;73535;52.500;13.482;2024-02-26T14:12:56;7.43;;;5.38;;
83562;SDS011;73535;52.500;13.482;2024-02-26T14:15:22;8.32;;;5.95;;
83562;SDS011;73535;52.500;13.482;2024-02-26T14:17:49;7.75;;;5.60;;
83562;SDS011;73535;52.500;13.482;2024-02-26T14:20:19;8.15;;;5.60;;
83562;SDS011;73535;52.500;13.482;2024-02-26T14:22:45;8.75;;;5.95;;
83562;SDS011;73535;52.500;13.482;2024-02-26T14:25:10;7.95;;;5.57;;